sensor_id;sensor_type;location;lat;lon;timestamp;pressure;altitude;pressure_sealevel;temperature;humidity
47082;BME280;33066;49.296;14.470;2023-02-28T00:01:02;97873.70;;;7.09;29.17
47082;BME280;33066;49.296;14.470;2023-02-28T00:03:27;97873.92;;;7.05;29.23
47082;BME280;33066;49.296;14.470;2023-02-28T00:05:52;97875.65;;;7.07;29.12
47082;BME280;33066;49.296;14.470;2023-02-28T00:08:18;97871.33;;;7.37;29.17
47082;BME280;33066;49.296;14.470;2023-02-28T00:10:43;97872.59;;;7.65;29.16
47082;BME280;33066;49.296;14.470;2023-02-28T00:13:08;97873.02;;;7.41;28.96
47082;BME280;33066;49.296;14.470;2023-02-28T00:15:34;97872.31;;;7.17;28.92
47082;BME280;33066;49.296;14.470;2023-02-28T00:18:01;97867.55;;;7.35;29.03
47082;BME280;33066;49.296;14.470;2023-02-28T00:20:25;97866.38;;;7.10;29.16
47082;BME280;33066;49.296;14.470;2023-02-28T00:22:52;97862.30;;;7.39;28.96
47082;BME280;33066;49.296;14.470;2023-02-28T00:25:18;97860.78;;;7.42;28.87
47082;BME280;33066;49.296;14.470;2023-02-28T00:27:41;97862.61;;;7.21;28.77
47082;BME280;33066;49.296;14.470;2023-02-28T00:30:10;97862.00;;;7.43;28.76
47082;BME280;33066;49.296;14.470;2023-02-28T00:32:32;97865.85;;;7.19;28.68
47082;BME280;33066;49.296;14.470;2023-02-28T00:34:57;97867.12;;;7.22;28.76
47082;BME280;33066;49.296;14.470;2023-02-28T00:37:23;97867.85;;;7.47;28.84
47082;BME280;33066;49.296;14.470;2023-02-28T00:39:49;97864.73;;;7.20;28.77
47082;BME280;33066;49.296;14.470;2023-02-28T00:42:14;97866.25;;;7.25;28.64
47082;BME280;33066;49.296;14.470;2023-02-28T00:44:39;97864.76;;;7.25;28.57
47082;BME280;33066;49.296;14.470;2023-02-28T00:47:05;97864.44;;;7.26;28.63
47082;BME280;33066;49.296;14.470;2023-02-28T00:49:30;97865.07;;;7.45;28.50
47082;BME280;33066;49.296;14.470;2023-02-28T00:51:56;97863.87;;;7.20;28.50
47082;BME280;33066;49.296;14.470;2023-02-28T00:54:22;97862.85;;;7.24;28.57
47082;BME280;33066;49.296;14.470;2023-02-28T00:56:46;97856.81;;;7.42;28.37
47082;BME280;33066;49.296;14.470;2023-02-28T00:59:12;97854.39;;;7.08;28.60
47082;BME280;33066;49.296;14.470;2023-02-28T01:01:37;97856.65;;;7.33;28.72
47082;BME280;33066;49.296;14.470;2023-02-28T01:04:03;97858.85;;;7.22;28.69
47082;BME280;33066;49.296;14.470;2023-02-28T01:06:28;97854.75;;;7.02;28.81
47082;BME280;33066;49.296;14.470;2023-02-28T01:08:54;97853.46;;;7.27;28.77
47082;BME280;33066;49.296;14.470;2023-02-28T01:11:20;97850.65;;;7.07;28.77
47082;BME280;33066;49.296;14.470;2023-02-28T01:13:46;97846.22;;;7.12;28.56
47082;BME280;33066;49.296;14.470;2023-02-28T01:16:10;97846.51;;;7.27;28.75
47082;BME280;33066;49.296;14.470;2023-02-28T01:18:36;97846.95;;;7.30;28.50
47082;BME280;33066;49.296;14.470;2023-02-28T01:21:04;97847.88;;;7.27;28.63
47082;BME280;33066;49.296;14.470;2023-02-28T01:23:26;97849.12;;;7.18;28.61
47082;BME280;33066;49.296;14.470;2023-02-28T01:25:53;97847.43;;;6.16;28.31
47082;BME280;33066;49.296;14.470;2023-02-28T01:28:18;97846.86;;;7.70;27.72
47082;BME280;33066;49.296;14.470;2023-02-28T01:30:48;97842.73;;;7.56;27.97
47082;BME280;33066;49.296;14.470;2023-02-28T01:33:09;97843.70;;;7.32;28.17
47082;BME280;33066;49.296;14.470;2023-02-28T01:35:35;97840.65;;;7.38;28.31
47082;BME280;33066;49.296;14.470;2023-02-28T01:37:59;97843.46;;;7.31;28.15
47082;BME280;33066;49.296;14.470;2023-02-28T01:40:24;97847.30;;;7.20;28.20
47082;BME280;33066;49.296;14.470;2023-02-28T01:42:50;97851.26;;;7.39;28.15
47082;BME280;33066;49.296;14.470;2023-02-28T01:45:22;97844.25;;;6.85;27.70
47082;BME280;33066;49.296;14.470;2023-02-28T01:47:42;97850.65;;;6.99;27.70
47082;BME280;33066;49.296;14.470;2023-02-28T01:50:12;97852.73;;;7.05;27.70
47082;BME280;33066;49.296;14.470;2023-02-28T01:52:32;97848.62;;;6.90;27.70
47082;BME280;33066;49.296;14.470;2023-02-28T01:55:00;97844.93;;;6.83;27.50
47082;BME280;33066;49.296;14.470;2023-02-28T01:57:26;97846.56;;;6.71;27.57
47082;BME280;33066;49.296;14.470;2023-02-28T01:59:53;97845.23;;;6.71;27.75
47082;BME280;33066;49.296;14.470;2023-02-28T02:02:15;97842.48;;;6.56;27.83
47082;BME280;33066;49.296;14.470;2023-02-28T02:04:46;97839.68;;;6.50;27.88
47082;BME280;33066;49.296;14.470;2023-02-28T02:07:05;97838.24;;;6.45;28.00
47082;BME280;33066;49.296;14.470;2023-02-28T02:09:30;97837.27;;;6.39;28.03
47082;BME280;33066;49.296;14.470;2023-02-28T02:11:56;97834.95;;;6.38;28.06
47082;BME280;33066;49.296;14.470;2023-02-28T02:14:32;97833.38;;;6.40;28.11
47082;BME280;33066;49.296;14.470;2023-02-28T02:16:54;97831.85;;;6.43;28.20
47082;BME280;33066;49.296;14.470;2023-02-28T02:21:50;97829.57;;;6.53;28.17
47082;BME280;33066;49.296;14.470;2023-02-28T02:24:15;97830.29;;;6.52;28.30
47082;BME280;33066;49.296;14.470;2023-02-28T02:26:42;97827.78;;;6.48;28.34
47082;BME280;33066;49.296;14.470;2023-02-28T02:29:06;97827.86;;;6.50;28.32
47082;BME280;33066;49.296;14.470;2023-02-28T02:31:28;97825.99;;;6.48;28.37
47082;BME280;33066;49.296;14.470;2023-02-28T02:34:02;97827.35;;;6.54;28.38
47082;BME280;33066;49.296;14.470;2023-02-28T02:36:14;97826.10;;;6.45;28.32
47082;BME280;33066;49.296;14.470;2023-02-28T02:38:41;97823.62;;;6.43;28.29
47082;BME280;33066;49.296;14.470;2023-02-28T02:41:06;97825.14;;;6.35;28.26
47082;BME280;33066;49.296;14.470;2023-02-28T02:43:30;97824.14;;;6.32;28.31
47082;BME280;33066;49.296;14.470;2023-02-28T02:45:54;97823.67;;;6.27;28.26
47082;BME280;33066;49.296;14.470;2023-02-28T02:48:19;97822.60;;;6.16;28.35
47082;BME280;33066;49.296;14.470;2023-02-28T02:50:44;97824.07;;;6.09;28.45
47082;BME280;33066;49.296;14.470;2023-02-28T02:53:09;97821.59;;;6.07;28.47
47082;BME280;33066;49.296;14.470;2023-02-28T02:55:37;97822.27;;;6.03;28.59
47082;BME280;33066;49.296;14.470;2023-02-28T02:58:01;97824.47;;;5.99;28.70
47082;BME280;33066;49.296;14.470;2023-02-28T03:00:26;97825.23;;;5.99;28.95
47082;BME280;33066;49.296;14.470;2023-02-28T03:02:52;97827.14;;;6.40;29.13
47082;BME280;33066;49.296;14.470;2023-02-28T03:05:20;97822.43;;;6.11;29.37
47082;BME280;33066;49.296;14.470;2023-02-28T03:07:40;97824.00;;;6.09;29.52
47082;BME280;33066;49.296;14.470;2023-02-28T03:12:39;97823.93;;;5.83;29.77
47082;BME280;33066;49.296;14.470;2023-02-28T03:15:04;97825.24;;;5.84;29.99
47082;BME280;33066;49.296;14.470;2023-02-28T03:17:34;97825.69;;;6.07;30.24
47082;BME280;33066;49.296;14.470;2023-02-28T03:19:55;97823.17;;;5.89;30.36
47082;BME280;33066;49.296;14.470;2023-02-28T03:22:29;97821.61;;;5.94;30.44
47082;BME280;33066;49.296;14.470;2023-02-28T03:24:44;97821.01;;;6.01;30.44
47082;BME280;33066;49.296;14.470;2023-02-28T03:27:07;97821.16;;;6.03;30.49
47082;BME280;33066;49.296;14.470;2023-02-28T03:29:34;97822.61;;;6.07;30.46
47082;BME280;33066;49.296;14.470;2023-02-28T03:31:58;97824.54;;;5.99;30.49
47082;BME280;33066;49.296;14.470;2023-02-28T03:34:24;97824.04;;;5.98;30.43
47082;BME280;33066;49.296;14.470;2023-02-28T03:36:48;97822.73;;;6.01;30.22
47082;BME280;33066;49.296;14.470;2023-02-28T03:39:14;97823.89;;;5.96;30.06
47082;BME280;33066;49.296;14.470;2023-02-28T03:41:38;97825.69;;;6.20;29.74
47082;BME280;33066;49.296;14.470;2023-02-28T03:44:05;97824.16;;;6.23;29.66
47082;BME280;33066;49.296;14.470;2023-02-28T03:46:31;97826.29;;;5.92;29.65
47082;BME280;33066;49.296;14.470;2023-02-28T03:48:56;97830.99;;;5.81;29.45
47082;BME280;33066;49.296;14.470;2023-02-28T03:51:20;97832.09;;;5.88;29.37
47082;BME280;33066;49.296;14.470;2023-02-28T03:53:46;97831.68;;;6.45;29.33
47082;BME280;33066;49.296;14.470;2023-02-28T03:56:13;97833.51;;;5.99;29.02
47082;BME280;33066;49.296;14.470;2023-02-28T03:58:41;97837.48;;;6.44;28.95
47082;BME280;33066;49.296;14.470;2023-02-28T04:01:07;97839.45;;;6.16;28.99
47082;BME280;33066;49.296;14.470;2023-02-28T04:03:26;97838.93;;;5.92;29.01
47082;BME280;33066;49.296;14.470;2023-02-28T04:05:54;97841.20;;;5.85;28.87
47082;BME280;33066;49.296;14.470;2023-02-28T04:08:18;97840.32;;;5.77;28.93
47082;BME280;33066;49.296;14.470;2023-02-28T04:12:59;97841.29;;;6.33;28.64
47082;BME280;33066;49.296;14.470;2023-02-28T04:15:25;97843.07;;;6.27;28.57
47082;BME280;33066;49.296;14.470;2023-02-28T04:17:50;97843.17;;;6.27;28.60
47082;BME280;33066;49.296;14.470;2023-02-28T04:20:16;97844.15;;;6.22;28.51
47082;BME280;33066;49.296;14.470;2023-02-28T04:22:41;97843.34;;;6.09;28.41
47082;BME280;33066;49.296;14.470;2023-02-28T04:25:07;97844.04;;;6.28;28.40
47082;BME280;33066;49.296;14.470;2023-02-28T04:27:32;97843.32;;;6.22;28.39
47082;BME280;33066;49.296;14.470;2023-02-28T04:29:57;97843.06;;;5.89;28.25
47082;BME280;33066;49.296;14.470;2023-02-28T04:32:23;97841.98;;;6.02;28.32
47082;BME280;33066;49.296;14.470;2023-02-28T04:34:49;97843.02;;;5.81;28.39
47082;BME280;33066;49.296;14.470;2023-02-28T04:37:14;97840.92;;;5.80;28.28
47082;BME280;33066;49.296;14.470;2023-02-28T04:39:40;97840.45;;;6.30;28.31
47082;BME280;33066;49.296;14.470;2023-02-28T04:42:06;97836.50;;;5.54;28.33
47082;BME280;33066;49.296;14.470;2023-02-28T04:44:31;97834.48;;;5.81;28.29
47082;BME280;33066;49.296;14.470;2023-02-28T04:46:57;97834.88;;;5.87;28.11
47082;BME280;33066;49.296;14.470;2023-02-28T04:49:22;97832.94;;;5.82;27.98
47082;BME280;33066;49.296;14.470;2023-02-28T04:51:48;97833.54;;;6.08;27.96
47082;BME280;33066;49.296;14.470;2023-02-28T04:54:13;97833.26;;;5.81;28.00
47082;BME280;33066;49.296;14.470;2023-02-28T04:56:38;97833.47;;;5.80;28.05
47082;BME280;33066;49.296;14.470;2023-02-28T04:59:04;97834.52;;;5.80;28.16
47082;BME280;33066;49.296;14.470;2023-02-28T05:01:31;97835.52;;;6.26;27.94
47082;BME280;33066;49.296;14.470;2023-02-28T05:03:56;97834.50;;;5.82;28.48
47082;BME280;33066;49.296;14.470;2023-02-28T05:06:21;97833.86;;;6.34;28.53
47082;BME280;33066;49.296;14.470;2023-02-28T05:08:46;97833.15;;;5.92;28.68
47082;BME280;33066;49.296;14.470;2023-02-28T05:11:17;97829.19;;;5.95;28.48
47082;BME280;33066;49.296;14.470;2023-02-28T05:13:36;97827.36;;;6.22;29.85
47082;BME280;33066;49.296;14.470;2023-02-28T05:16:01;97827.29;;;5.97;29.55
47082;BME280;33066;49.296;14.470;2023-02-28T05:18:27;97826.58;;;5.97;29.77
47082;BME280;33066;49.296;14.470;2023-02-28T05:20:53;97823.26;;;6.02;29.81
47082;BME280;33066;49.296;14.470;2023-02-28T05:23:20;97828.67;;;6.03;29.67
47082;BME280;33066;49.296;14.470;2023-02-28T05:25:43;97828.35;;;6.01;29.55
47082;BME280;33066;49.296;14.470;2023-02-28T05:28:09;97828.02;;;5.95;29.38
47082;BME280;33066;49.296;14.470;2023-02-28T05:30:34;97828.67;;;6.30;29.25
47082;BME280;33066;49.296;14.470;2023-02-28T05:33:00;97828.49;;;6.05;29.29
47082;BME280;33066;49.296;14.470;2023-02-28T05:35:25;97828.49;;;5.81;29.49
47082;BME280;33066;49.296;14.470;2023-02-28T05:37:50;97830.41;;;5.93;29.23
47082;BME280;33066;49.296;14.470;2023-02-28T05:40:17;97833.88;;;5.90;29.11
47082;BME280;33066;49.296;14.470;2023-02-28T05:42:41;97839.39;;;6.16;28.89
47082;BME280;33066;49.296;14.470;2023-02-28T05:45:08;97844.26;;;5.81;28.63
47082;BME280;33066;49.296;14.470;2023-02-28T05:47:32;97846.19;;;6.18;28.81
47082;BME280;33066;49.296;14.470;2023-02-28T05:49:57;97850.52;;;6.03;28.71
47082;BME280;33066;49.296;14.470;2023-02-28T05:52:23;97852.14;;;6.01;28.74
47082;BME280;33066;49.296;14.470;2023-02-28T05:54:48;97856.54;;;6.01;29.44
47082;BME280;33066;49.296;14.470;2023-02-28T05:57:14;97861.31;;;5.74;29.35
47082;BME280;33066;49.296;14.470;2023-02-28T05:59:39;97864.71;;;5.50;29.04
47082;BME280;33066;49.296;14.470;2023-02-28T06:02:06;97866.74;;;5.94;28.78
47082;BME280;33066;49.296;14.470;2023-02-28T06:04:30;97866.62;;;5.99;28.67
47082;BME280;33066;49.296;14.470;2023-02-28T06:06:56;97867.37;;;5.77;28.53
47082;BME280;33066;49.296;14.470;2023-02-28T06:09:21;97871.83;;;5.72;28.53
47082;BME280;33066;49.296;14.470;2023-02-28T06:11:46;97871.03;;;5.95;28.51
47082;BME280;33066;49.296;14.470;2023-02-28T06:14:15;97873.40;;;5.74;28.48
47082;BME280;33066;49.296;14.470;2023-02-28T06:16:37;97871.36;;;5.58;28.48
47082;BME280;33066;49.296;14.470;2023-02-28T06:19:04;97874.69;;;5.90;28.38
47082;BME280;33066;49.296;14.470;2023-02-28T06:21:29;97876.74;;;5.68;28.25
47082;BME280;33066;49.296;14.470;2023-02-28T06:23:55;97879.01;;;5.83;28.54
47082;BME280;33066;49.296;14.470;2023-02-28T06:26:20;97876.56;;;5.57;28.31
47082;BME280;33066;49.296;14.470;2023-02-28T06:28:45;97878.38;;;6.12;28.07
47082;BME280;33066;49.296;14.470;2023-02-28T06:31:12;97885.87;;;6.05;28.06
47082;BME280;33066;49.296;14.470;2023-02-28T06:33:37;97893.75;;;5.99;28.12
47082;BME280;33066;49.296;14.470;2023-02-28T06:36:02;97895.73;;;6.06;28.02
47082;BME280;33066;49.296;14.470;2023-02-28T06:38:27;97893.03;;;5.95;27.96
47082;BME280;33066;49.296;14.470;2023-02-28T06:40:54;97894.75;;;6.16;27.98
47082;BME280;33066;49.296;14.470;2023-02-28T06:43:18;97900.05;;;5.96;27.95
47082;BME280;33066;49.296;14.470;2023-02-28T06:45:43;97901.95;;;6.05;27.94
47082;BME280;33066;49.296;14.470;2023-02-28T06:48:08;97903.21;;;6.09;27.81
47082;BME280;33066;49.296;14.470;2023-02-28T06:50:34;97901.09;;;6.16;27.79
47082;BME280;33066;49.296;14.470;2023-02-28T06:53:00;97906.33;;;6.09;27.77
47082;BME280;33066;49.296;14.470;2023-02-28T06:55:25;97906.95;;;6.11;27.80
47082;BME280;33066;49.296;14.470;2023-02-28T06:57:50;97910.94;;;6.03;27.79
47082;BME280;33066;49.296;14.470;2023-02-28T07:00:16;97909.71;;;6.08;27.75
47082;BME280;33066;49.296;14.470;2023-02-28T07:02:41;97911.39;;;6.16;28.20
47082;BME280;33066;49.296;14.470;2023-02-28T07:05:07;97912.08;;;6.23;28.93
47082;BME280;33066;49.296;14.470;2023-02-28T07:07:32;97914.18;;;6.56;28.96
47082;BME280;33066;49.296;14.470;2023-02-28T07:09:58;97912.73;;;6.26;28.75
47082;BME280;33066;49.296;14.470;2023-02-28T07:12:23;97917.28;;;6.58;28.66
47082;BME280;33066;49.296;14.470;2023-02-28T07:14:49;97919.83;;;6.33;28.10
47082;BME280;33066;49.296;14.470;2023-02-28T07:17:14;97920.05;;;6.38;28.25
47082;BME280;33066;49.296;14.470;2023-02-28T07:19:40;97923.75;;;6.46;28.30
47082;BME280;33066;49.296;14.470;2023-02-28T07:22:05;97923.84;;;6.52;28.15
47082;BME280;33066;49.296;14.470;2023-02-28T07:24:30;97924.89;;;6.53;27.73
47082;BME280;33066;49.296;14.470;2023-02-28T07:26:56;97926.81;;;6.46;27.85
47082;BME280;33066;49.296;14.470;2023-02-28T07:29:21;97927.80;;;6.48;27.91
47082;BME280;33066;49.296;14.470;2023-02-28T07:31:47;97926.69;;;6.34;27.89
47082;BME280;33066;49.296;14.470;2023-02-28T07:34:12;97928.30;;;6.26;27.69
47082;BME280;33066;49.296;14.470;2023-02-28T07:36:37;97933.09;;;6.74;27.65
47082;BME280;33066;49.296;14.470;2023-02-28T07:39:03;97931.88;;;6.63;27.97
47082;BME280;33066;49.296;14.470;2023-02-28T07:41:28;97931.65;;;6.76;28.01
47082;BME280;33066;49.296;14.470;2023-02-28T07:43:54;97928.06;;;6.78;27.90
47082;BME280;33066;49.296;14.470;2023-02-28T07:46:19;97928.34;;;6.68;28.49
47082;BME280;33066;49.296;14.470;2023-02-28T07:48:45;97930.57;;;6.98;28.04
47082;BME280;33066;49.296;14.470;2023-02-28T07:51:11;97926.11;;;6.93;27.57
47082;BME280;33066;49.296;14.470;2023-02-28T07:53:36;97926.50;;;6.78;27.54
47082;BME280;33066;49.296;14.470;2023-02-28T07:56:02;97927.70;;;6.76;27.88
47082;BME280;33066;49.296;14.470;2023-02-28T07:58:28;97926.27;;;6.64;27.62
47082;BME280;33066;49.296;14.470;2023-02-28T08:00:52;97923.39;;;6.70;27.89
47082;BME280;33066;49.296;14.470;2023-02-28T08:03:18;97924.20;;;6.99;27.54
47082;BME280;33066;49.296;14.470;2023-02-28T08:05:43;97924.30;;;6.92;27.63
47082;BME280;33066;49.296;14.470;2023-02-28T08:08:08;97924.66;;;7.01;27.62
47082;BME280;33066;49.296;14.470;2023-02-28T08:10:34;97924.20;;;7.10;27.48
47082;BME280;33066;49.296;14.470;2023-02-28T08:12:59;97925.60;;;6.78;27.65
47082;BME280;33066;49.296;14.470;2023-02-28T08:15:24;97926.67;;;6.98;27.49
47082;BME280;33066;49.296;14.470;2023-02-28T08:17:50;97925.46;;;6.96;27.23
47082;BME280;33066;49.296;14.470;2023-02-28T08:20:15;97922.51;;;7.12;27.25
47082;BME280;33066;49.296;14.470;2023-02-28T08:22:41;97924.80;;;7.01;27.39
47082;BME280;33066;49.296;14.470;2023-02-28T08:25:07;97920.39;;;7.32;27.50
47082;BME280;33066;49.296;14.470;2023-02-28T08:27:32;97925.39;;;7.15;27.35
47082;BME280;33066;49.296;14.470;2023-02-28T08:29:58;97924.26;;;7.25;27.28
47082;BME280;33066;49.296;14.470;2023-02-28T08:32:23;97925.65;;;7.08;27.21
47082;BME280;33066;49.296;14.470;2023-02-28T08:34:49;97923.05;;;7.37;27.56
47082;BME280;33066;49.296;14.470;2023-02-28T08:37:14;97929.83;;;7.11;27.39
47082;BME280;33066;49.296;14.470;2023-02-28T08:39:40;97929.34;;;7.15;27.39
47082;BME280;33066;49.296;14.470;2023-02-28T08:42:05;97929.56;;;7.09;27.25
47082;BME280;33066;49.296;14.470;2023-02-28T08:44:31;97933.28;;;7.24;27.27
47082;BME280;33066;49.296;14.470;2023-02-28T08:46:56;97935.85;;;7.46;27.23
47082;BME280;33066;49.296;14.470;2023-02-28T08:49:21;97936.11;;;7.58;27.18
47082;BME280;33066;49.296;14.470;2023-02-28T08:51:46;97934.04;;;7.56;26.92
47082;BME280;33066;49.296;14.470;2023-02-28T08:54:11;97934.73;;;7.25;27.11
47082;BME280;33066;49.296;14.470;2023-02-28T08:56:36;97933.80;;;7.64;27.21
47082;BME280;33066;49.296;14.470;2023-02-28T08:59:02;97931.92;;;7.63;26.94
47082;BME280;33066;49.296;14.470;2023-02-28T09:01:28;97927.49;;;7.67;26.94
47082;BME280;33066;49.296;14.470;2023-02-28T09:03:54;97928.82;;;7.74;26.93
47082;BME280;33066;49.296;14.470;2023-02-28T09:06:20;97933.15;;;7.80;26.84
47082;BME280;33066;49.296;14.470;2023-02-28T09:08:44;97934.17;;;8.03;26.96
47082;BME280;33066;49.296;14.470;2023-02-28T09:11:09;97930.55;;;8.08;26.73
47082;BME280;33066;49.296;14.470;2023-02-28T09:13:34;97928.53;;;7.62;26.61
47082;BME280;33066;49.296;14.470;2023-02-28T09:16:00;97935.77;;;8.00;26.85
47082;BME280;33066;49.296;14.470;2023-02-28T09:18:25;97936.19;;;7.74;27.00
47082;BME280;33066;49.296;14.470;2023-02-28T09:20:49;97933.16;;;7.79;26.86
47082;BME280;33066;49.296;14.470;2023-02-28T09:23:15;97932.49;;;7.91;26.94
47082;BME280;33066;49.296;14.470;2023-02-28T09:25:46;97932.25;;;8.14;26.88
47082;BME280;33066;49.296;14.470;2023-02-28T09:28:05;97932.73;;;8.10;26.67
47082;BME280;33066;49.296;14.470;2023-02-28T09:30:31;97933.36;;;8.51;26.44
47082;BME280;33066;49.296;14.470;2023-02-28T09:32:56;97932.31;;;8.33;26.42
47082;BME280;33066;49.296;14.470;2023-02-28T09:35:23;97922.67;;;8.51;26.50
47082;BME280;33066;49.296;14.470;2023-02-28T09:37:48;97925.62;;;8.61;26.33
47082;BME280;33066;49.296;14.470;2023-02-28T09:40:14;97930.29;;;8.75;26.35
47082;BME280;33066;49.296;14.470;2023-02-28T09:42:39;97933.13;;;8.65;26.34
47082;BME280;33066;49.296;14.470;2023-02-28T09:45:11;97927.56;;;8.89;26.08
47082;BME280;33066;49.296;14.470;2023-02-28T09:47:32;97926.49;;;8.91;25.99
47082;BME280;33066;49.296;14.470;2023-02-28T09:49:57;97925.35;;;9.09;26.00
47082;BME280;33066;49.296;14.470;2023-02-28T09:52:22;97923.48;;;8.94;25.78
47082;BME280;33066;49.296;14.470;2023-02-28T09:54:46;97919.24;;;9.03;25.71
47082;BME280;33066;49.296;14.470;2023-02-28T09:57:19;97922.19;;;9.24;25.80
47082;BME280;33066;49.296;14.470;2023-02-28T09:59:46;97921.29;;;9.27;25.52
47082;BME280;33066;49.296;14.470;2023-02-28T10:02:10;97918.71;;;9.40;25.42
47082;BME280;33066;49.296;14.470;2023-02-28T10:04:36;97912.35;;;9.56;25.83
47082;BME280;33066;49.296;14.470;2023-02-28T10:06:53;97918.91;;;9.54;25.76
47082;BME280;33066;49.296;14.470;2023-02-28T10:09:20;97919.84;;;9.54;25.82
47082;BME280;33066;49.296;14.470;2023-02-28T10:11:44;97920.11;;;9.76;25.43
47082;BME280;33066;49.296;14.470;2023-02-28T10:14:14;97918.90;;;9.63;25.45
47082;BME280;33066;49.296;14.470;2023-02-28T10:16:37;97919.25;;;9.89;25.46
47082;BME280;33066;49.296;14.470;2023-02-28T10:19:04;97916.89;;;9.88;25.35
47082;BME280;33066;49.296;14.470;2023-02-28T10:21:30;97918.22;;;9.89;25.28
47082;BME280;33066;49.296;14.470;2023-02-28T10:23:59;97911.44;;;9.60;25.23
47082;BME280;33066;49.296;14.470;2023-02-28T10:26:17;97919.94;;;9.76;25.22
47082;BME280;33066;49.296;14.470;2023-02-28T10:28:43;97905.82;;;9.59;25.22
47082;BME280;33066;49.296;14.470;2023-02-28T10:31:11;97909.23;;;9.85;25.20
47082;BME280;33066;49.296;14.470;2023-02-28T10:33:34;97905.57;;;10.06;25.13
47082;BME280;33066;49.296;14.470;2023-02-28T10:35:58;97912.84;;;9.62;25.32
47082;BME280;33066;49.296;14.470;2023-02-28T10:38:25;97907.46;;;9.61;25.27
47082;BME280;33066;49.296;14.470;2023-02-28T10:40:49;97907.17;;;10.18;25.09
47082;BME280;33066;49.296;14.470;2023-02-28T10:43:21;97904.93;;;10.79;24.61
47082;BME280;33066;49.296;14.470;2023-02-28T10:48:26;97909.44;;;10.28;24.55
47082;BME280;33066;49.296;14.470;2023-02-28T10:50:37;97913.43;;;11.14;24.17
47082;BME280;33066;49.296;14.470;2023-02-28T10:53:07;97908.33;;;10.80;24.10
47082;BME280;33066;49.296;14.470;2023-02-28T10:55:24;97907.25;;;11.69;23.85
47082;BME280;33066;49.296;14.470;2023-02-28T10:57:46;97902.53;;;12.59;23.60
47082;BME280;33066;49.296;14.470;2023-02-28T11:00:16;97902.27;;;12.47;23.17
47082;BME280;33066;49.296;14.470;2023-02-28T11:02:37;97902.40;;;12.58;22.67
47082;BME280;33066;49.296;14.470;2023-02-28T11:07:28;97900.34;;;12.62;22.31
47082;BME280;33066;49.296;14.470;2023-02-28T11:09:55;97905.01;;;12.08;22.55
47082;BME280;33066;49.296;14.470;2023-02-28T11:12:22;97904.73;;;11.94;22.89
47082;BME280;33066;49.296;14.470;2023-02-28T11:14:49;97908.98;;;11.68;23.05
47082;BME280;33066;49.296;14.470;2023-02-28T11:17:20;97901.91;;;11.62;22.99
47082;BME280;33066;49.296;14.470;2023-02-28T11:19:39;97906.09;;;12.19;22.82
47082;BME280;33066;49.296;14.470;2023-02-28T11:22:02;97894.31;;;13.08;22.27
47082;BME280;33066;49.296;14.470;2023-02-28T11:24:28;97892.00;;;13.71;21.83
47082;BME280;33066;49.296;14.470;2023-02-28T11:26:51;97886.57;;;13.30;21.67
47082;BME280;33066;49.296;14.470;2023-02-28T11:29:19;97887.00;;;13.60;21.73
47082;BME280;33066;49.296;14.470;2023-02-28T11:31:42;97885.85;;;13.24;21.95
47082;BME280;33066;49.296;14.470;2023-02-28T11:34:23;97882.89;;;12.95;22.42
47082;BME280;33066;49.296;14.470;2023-02-28T11:36:33;97883.91;;;12.55;22.41
47082;BME280;33066;49.296;14.470;2023-02-28T11:39:00;97882.44;;;12.34;22.69
47082;BME280;33066;49.296;14.470;2023-02-28T11:41:38;97883.39;;;12.39;22.44
47082;BME280;33066;49.296;14.470;2023-02-28T11:44:02;97875.03;;;13.16;22.24
47082;BME280;33066;49.296;14.470;2023-02-28T11:46:23;97873.30;;;13.22;22.37
47082;BME280;33066;49.296;14.470;2023-02-28T11:48:48;97871.94;;;13.05;22.21
47082;BME280;33066;49.296;14.470;2023-02-28T11:51:14;97866.39;;;12.95;22.54
47082;BME280;33066;49.296;14.470;2023-02-28T11:53:47;97869.53;;;13.63;22.56
47082;BME280;33066;49.296;14.470;2023-02-28T11:56:03;97862.42;;;14.24;21.58
47082;BME280;33066;49.296;14.470;2023-02-28T11:58:30;97860.96;;;14.08;21.19
47082;BME280;33066;49.296;14.470;2023-02-28T12:00:57;97859.73;;;14.17;21.32
47082;BME280;33066;49.296;14.470;2023-02-28T12:03:23;97860.86;;;14.69;21.25
47082;BME280;33066;49.296;14.470;2023-02-28T12:05:45;97862.73;;;14.60;21.00
47082;BME280;33066;49.296;14.470;2023-02-28T12:08:17;97861.57;;;15.37;20.77
47082;BME280;33066;49.296;14.470;2023-02-28T12:10:35;97859.21;;;16.26;20.56
47082;BME280;33066;49.296;14.470;2023-02-28T12:13:07;97859.92;;;15.58;20.77
47082;BME280;33066;49.296;14.470;2023-02-28T12:15:33;97857.50;;;15.24;20.23
47082;BME280;33066;49.296;14.470;2023-02-28T12:17:55;97854.98;;;16.13;20.05
47082;BME280;33066;49.296;14.470;2023-02-28T12:20:18;97846.01;;;16.49;19.08
47082;BME280;33066;49.296;14.470;2023-02-28T12:22:42;97847.08;;;16.17;19.40
47082;BME280;33066;49.296;14.470;2023-02-28T12:27:31;97849.07;;;15.26;19.62
47082;BME280;33066;49.296;14.470;2023-02-28T12:29:56;97846.86;;;15.17;20.20
47082;BME280;33066;49.296;14.470;2023-02-28T12:32:23;97846.06;;;15.12;20.49
47082;BME280;33066;49.296;14.470;2023-02-28T12:34:49;97844.83;;;14.78;20.10
47082;BME280;33066;49.296;14.470;2023-02-28T12:37:15;97842.36;;;15.26;20.03
47082;BME280;33066;49.296;14.470;2023-02-28T12:39:40;97845.20;;;15.02;20.40
47082;BME280;33066;49.296;14.470;2023-02-28T12:42:05;97840.99;;;14.37;20.84
47082;BME280;33066;49.296;14.470;2023-02-28T12:44:32;97845.09;;;14.38;21.22
47082;BME280;33066;49.296;14.470;2023-02-28T12:46:55;97841.80;;;14.56;20.89
47082;BME280;33066;49.296;14.470;2023-02-28T12:49:21;97840.75;;;14.64;20.80
47082;BME280;33066;49.296;14.470;2023-02-28T12:51:43;97840.28;;;15.06;20.65
47082;BME280;33066;49.296;14.470;2023-02-28T12:54:16;97838.49;;;14.91;20.27
47082;BME280;33066;49.296;14.470;2023-02-28T12:56:43;97838.95;;;14.96;20.34
47082;BME280;33066;49.296;14.470;2023-02-28T12:59:03;97834.15;;;14.31;20.82
47082;BME280;33066;49.296;14.470;2023-02-28T13:01:38;97838.82;;;13.90;20.80